TimeEST,TemperatureF,Dew PointF,Humidity,Sea Level PressureIn,VisibilityMPH,Wind Direction,Wind SpeedMPH,Gust SpeedMPH,PrecipitationIn,Events,Conditions,WindDirDegrees,DateUTC
12:51 AM,32.0,30.0,92,30.21,9.0,Calm,Calm,-,N/A,,Clear,0,2012-02-07 05:51:00
1:51 AM,32.0,30.0,92,30.21,8.0,Calm,Calm,-,N/A,,Clear,0,2012-02-07 06:51:00
2:51 AM,30.9,30.0,96,30.21,6.0,SSW,3.5,-,N/A,,Clear,210,2012-02-07 07:51:00
3:51 AM,30.9,28.9,92,30.20,9.0,SSW,3.5,-,N/A,,Clear,210,2012-02-07 08:51:00
4:51 AM,30.9,28.9,92,30.21,9.0,SSW,4.6,-,N/A,,Clear,210,2012-02-07 09:51:00
5:51 AM,30.0,28.9,96,30.22,9.0,South,3.5,-,N/A,,Clear,190,2012-02-07 10:51:00
6:51 AM,28.0,27.0,96,30.22,6.0,Calm,Calm,-,N/A,,Clear,0,2012-02-07 11:51:00
7:51 AM,28.9,28.0,96,30.24,6.0,SSW,5.8,-,N/A,,Clear,210,2012-02-07 12:51:00
8:51 AM,32.0,30.0,92,30.25,6.0,SSW,3.5,-,N/A,,Clear,200,2012-02-07 13:51:00
9:51 AM,36.0,32.0,86,30.25,10.0,SW,5.8,-,N/A,,Clear,220,2012-02-07 14:51:00
10:51 AM,42.1,33.1,70,30.25,10.0,WSW,3.5,-,N/A,,Clear,240,2012-02-07 15:51:00
11:51 AM,46.0,33.1,61,30.23,10.0,SW,6.9,-,N/A,,Partly Cloudy,230,2012-02-07 16:51:00
12:51 PM,48.0,33.1,56,30.21,10.0,Calm,Calm,-,N/A,,Clear,0,2012-02-07 17:51:00
1:51 PM,48.9,30.9,50,30.18,10.0,Variable,3.5,-,N/A,,Clear,0,2012-02-07 18:51:00
2:51 PM,50.0,30.0,46,30.19,10.0,SSW,8.1,-,N/A,,Clear,210,2012-02-07 19:51:00
3:51 PM,51.8,30.2,44,30.17,10.0,West,5.8,-,N/A,,Clear,260,2012-02-07 20:51:00
4:51 PM,51.1,28.0,41,30.18,10.0,WNW,3.5,-,N/A,,Clear,290,2012-02-07 21:51:00
5:51 PM,46.9,27.0,46,30.19,10.0,WNW,4.6,-,N/A,,Clear,290,2012-02-07 22:51:00
6:51 PM,43.0,28.0,56,30.21,10.0,WNW,6.9,-,N/A,,Clear,300,2012-02-07 23:51:00
7:51 PM,39.9,30.0,68,30.22,10.0,NNW,9.2,-,N/A,,Clear,340,2012-02-08 00:51:00
8:51 PM,36.0,27.0,70,30.25,10.0,North,9.2,-,N/A,,Clear,360,2012-02-08 01:51:00
9:51 PM,34.0,26.1,73,30.26,9.0,North,6.9,-,N/A,,Overcast,350,2012-02-08 02:51:00
10:51 PM,33.1,26.1,75,30.27,9.0,NNE,4.6,-,N/A,,Clear,30,2012-02-08 03:51:00
11:51 PM,32.0,24.8,75,30.24,9.0,Calm,Calm,-,N/A,,Clear,0,2012-02-08 04:51:00